Time;durP1;ratioP1;P1;durP2;ratioP2;P2;SDS_P1;SDS_P2;PMS_P1;PMS_P2;Temp;Humidity;BMP_temperature;BMP_pressure;BME280_temperature;BME280_humidity;BME280_pressure;Samples;Min_cycle;Max_cycle;Signal;HPM_P1;HPM_P2
2022/12/08 00:01:48;;;;;;;;;;;;;;;;;;7366857;19;859;-66
2022/12/08 00:04:16;;;;;;;;;;;;;;;;;;7365023;19;1881;-66
2022/12/08 00:09:25;;;;;;;;;;;;;;;;;;7365873;19;799;-66
2022/12/08 00:11:53;;;;;;;;;;;;;;;;;;7366682;19;810;-65
2022/12/08 00:14:21;;;;;;;;;;;;;;;;;;7369371;19;1772;-66
2022/12/08 00:16:49;;;;;;;;;;;;;;;;;;7365618;19;1380;-66
2022/12/08 00:19:17;;;;;;;;;;;;;;;;;;7369139;19;1661;-67
2022/12/08 00:21:46;;;;;;;;;;;;;;;;;;7366323;19;878;-67
2022/12/08 00:24:14;;;;;;;;;;;;;;;;;;7365051;19;1853;-66
2022/12/08 00:26:42;;;;;;;;;;;;;;;;;;7361648;19;1212;-64
2022/12/08 00:29:10;;;;;;;;;;;;;;;;;;7365144;19;812;-64
2022/12/08 00:31:38;;;;;;;;;;;;;;;;;;7366029;19;863;-65
2022/12/08 00:34:06;;;;;;;;;;;;;;;;;;7366100;19;779;-66
2022/12/08 00:36:34;;;;;;;;;;;;;;;;;;7364457;19;1310;-67
2022/12/08 00:39:03;;;;;;;;;;;;;;;;;;7365877;19;824;-65
2022/12/08 00:44:11;;;;;;;;;;;;;;;;;;7363836;19;1846;-67
2022/12/08 00:46:39;;;;;;;;;;;;;;;;;;7363090;19;1381;-65
2022/12/08 00:49:08;;;;;;;;;;;;;;;;;;7365345;19;1174;-67
2022/12/08 00:51:36;;;;;;;;;;;;;;;;;;7366271;19;793;-67
2022/12/08 00:54:04;;;;;;;;;;;;;;;;;;7365399;19;810;-66
2022/12/08 00:56:32;;;;;;;;;;;;;;;;;;7364673;19;1796;-65
2022/12/08 00:59:00;;;;;;;;;;;;;;;;;;7364712;19;886;-67
2022/12/08 01:01:28;;;;;;;;;;;;;;;;;;7363751;19;790;-66
2022/12/08 01:03:56;;;;;;;;;;;;;;;;;;7365659;19;1841;-66
2022/12/08 01:06:25;;;;;;;;;;;;;;;;;;7363306;19;1322;-66
2022/12/08 01:08:53;;;;;;;;;;;;;;;;;;7364198;19;878;-65
2022/12/08 01:11:21;;;;;;;;;;;;;;;;;;7365016;19;827;-69
2022/12/08 01:13:49;;;;;;;;;;;;;;;;;;7365222;19;831;-67
2022/12/08 01:16:17;;;;;;;;;;;;;;;;;;7364133;19;1850;-66
2022/12/08 01:18:45;;;;;;;;;;;;;;;;;;7364335;19;882;-66
2022/12/08 01:21:13;;;;;;;;;;;;;;;;;;7363203;19;782;-66
2022/12/08 01:23:41;;;;;;;;;;;;;;;;;;7365562;19;1853;-64
2022/12/08 01:26:10;;;;;;;;;;;;;;;;;;7363556;19;1325;-64
2022/12/08 01:28:38;;;;;;;;;;;;;;;;;;7363638;19;857;-64
2022/12/08 01:31:06;;;;;;;;;;;;;;;;;;7365270;19;1858;-65
2022/12/08 01:33:34;;;;;;;;;;;;;;;;;;7364663;19;780;-66
2022/12/08 01:36:03;;;;;;;;;;;;;;;;;;7362350;19;1333;-66
2022/12/08 01:38:31;;;;;;;;;;;;;;;;;;7367310;19;973;-66
2022/12/08 01:40:59;;;;;;;;;;;;;;;;;;7370802;19;735;-66
2022/12/08 01:43:27;;;;;;;;;;;;;;;;;;7370031;19;858;-66
2022/12/08 01:45:55;;;;;;;;;;;;;;;;;;7368743;19;1833;-67
2022/12/08 01:48:23;;;;;;;;;;;;;;;;;;7369752;19;1014;-66
2022/12/08 01:50:51;;;;;;;;;;;;;;;;;;7370987;19;984;-67
2022/12/08 01:53:19;;;;;;;;;;;;;;;;;;7371600;19;809;-66
2022/12/08 01:55:48;;;;;;;;;;;;;;;;;;7369501;19;1228;-66
2022/12/08 01:58:16;;;;;;;;;;;;;;;;;;7368117;19;861;-66
2022/12/08 02:00:44;;;;;;;;;;;;;;;;;;7374352;19;1662;-67
2022/12/08 02:03:12;;;;;;;;;;;;;;;;;;7371167;19;815;-67
2022/12/08 02:05:40;;;;;;;;;;;;;;;;;;7368088;19;1865;-66
2022/12/08 02:08:08;;;;;;;;;;;;;;;;;;7369607;19;853;-66
2022/12/08 02:10:37;;;;;;;;;;;;;;;;;;7369470;19;786;-66
2022/12/08 02:13:05;;;;;;;;;;;;;;;;;;7370189;19;782;-67
2022/12/08 02:15:33;;;;;;;;;;;;;;;;;;7368815;19;1328;-67
2022/12/08 02:18:01;;;;;;;;;;;;;;;;;;7369126;19;823;-65
2022/12/08 02:20:29;;;;;;;;;;;;;;;;;;7368052;19;860;-65
2022/12/08 02:22:57;;;;;;;;;;;;;;;;;;7368642;19;836;-66
2022/12/08 02:25:25;;;;;;;;;;;;;;;;;;7367686;19;1857;-64
2022/12/08 02:27:53;;;;;;;;;;;;;;;;;;7373050;19;1785;-66
2022/12/08 02:30:22;;;;;;;;;;;;;;;;;;7369297;19;830;-65
2022/12/08 02:32:50;;;;;;;;;;;;;;;;;;7369749;19;841;-65
2022/12/08 02:35:18;;;;;;;;;;;;;;;;;;7369565;19;1293;-66
2022/12/08 02:37:46;;;;;;;;;;;;;;;;;;7368720;19;834;-66
2022/12/08 02:40:14;;;;;;;;;;;;;;;;;;7367970;19;822;-66
2022/12/08 02:42:42;;;;;;;;;;;;;;;;;;7369912;19;1770;-66
2022/12/08 02:45:11;;;;;;;;;;;;;;;;;;7368606;19;1850;-66
2022/12/08 02:47:39;;;;;;;;;;;;;;;;;;7369387;19;814;-65
2022/12/08 02:50:07;;;;;;;;;;;;;;;;;;7367137;19;771;-65
2022/12/08 02:52:35;;;;;;;;;;;;;;;;;;7369624;19;802;-65
2022/12/08 02:55:03;;;;;;;;;;;;;;;;;;7371159;19;1797;-64
2022/12/08 02:57:31;;;;;;;;;;;;;;;;;;7369231;19;711;-62
2022/12/08 02:59:59;;;;;;;;;;;;;;;;;;7368933;19;850;-64
2022/12/08 03:02:28;;;;;;;;;;;;;;;;;;7371125;19;1810;-64
2022/12/08 03:04:56;;;;;;;;;;;;;;;;;;7367439;19;1841;-62
2022/12/08 03:07:24;;;;;;;;;;;;;;;;;;7366411;19;1253;-63
2022/12/08 03:09:53;;;;;;;;;;;;;;;;;;7366428;19;862;-61
2022/12/08 03:12:21;;;;;;;;;;;;;;;;;;7368500;19;871;-63
2022/12/08 03:14:49;;;;;;;;;;;;;;;;;;7368220;19;818;-63
2022/12/08 03:17:17;;;;;;;;;;;;;;;;;;7369599;19;1579;-64
2022/12/08 03:19:45;;;;;;;;;;;;;;;;;;7367367;19;824;-64
2022/12/08 03:22:13;;;;;;;;;;;;;;;;;;7368141;19;901;-62
2022/12/08 03:24:42;;;;;;;;;;;;;;;;;;7369301;19;2132;-63
2022/12/08 03:27:10;;;;;;;;;;;;;;;;;;7366299;19;1282;-64
2022/12/08 03:29:38;;;;;;;;;;;;;;;;;;7367972;19;810;-63
2022/12/08 03:32:06;;;;;;;;;;;;;;;;;;7368280;19;712;-62
2022/12/08 03:34:34;;;;;;;;;;;;;;;;;;7369705;19;1859;-63
2022/12/08 03:37:03;;;;;;;;;;;;;;;;;;7365498;19;1279;-63
2022/12/08 03:39:31;;;;;;;;;;;;;;;;;;7367188;19;815;-63
2022/12/08 03:41:59;;;;;;;;;;;;;;;;;;7367718;19;799;-62
2022/12/08 03:44:27;;;;;;;;;;;;;;;;;;7367141;19;1860;-63
2022/12/08 03:46:56;;;;;;;;;;;;;;;;;;7367082;19;1850;-63
2022/12/08 03:49:24;;;;;;;;;;;;;;;;;;7367283;19;814;-63
2022/12/08 03:51:52;;;;;;;;;;;;;;;;;;7367694;19;826;-62
2022/12/08 03:54:20;;;;;;;;;;;;;;;;;;7367608;19;832;-63
2022/12/08 03:56:48;;;;;;;;;;;;;;;;;;7365831;19;1271;-64
2022/12/08 03:59:16;;;;;;;;;;;;;;;;;;7366955;19;794;-63
2022/12/08 04:01:44;;;;;;;;;;;;;;;;;;7368907;19;1804;-63
2022/12/08 04:04:13;;;;;;;;;;;;;;;;;;7369871;19;1791;-64
2022/12/08 04:06:41;;;;;;;;;;;;;;;;;;7363941;19;1840;-64
2022/12/08 04:09:09;;;;;;;;;;;;;;;;;;7365429;19;798;-64
2022/12/08 04:11:37;;;;;;;;;;;;;;;;;;7367618;19;821;-64
2022/12/08 04:14:05;;;;;;;;;;;;;;;;;;7367758;19;793;-63
2022/12/08 04:16:33;;;;;;;;;;;;;;;;;;7365018;19;1325;-63
2022/12/08 04:19:01;;;;;;;;;;;;;;;;;;7366943;19;1815;-64
2022/12/08 04:21:30;;;;;;;;;;;;;;;;;;7367854;19;854;-64
2022/12/08 04:23:58;;;;;;;;;;;;;;;;;;7367632;19;825;-63
2022/12/08 04:26:26;;;;;;;;;;;;;;;;;;7365127;19;1830;-63
2022/12/08 04:28:54;;;;;;;;;;;;;;;;;;7365008;19;807;-63
2022/12/08 04:31:22;;;;;;;;;;;;;;;;;;7367323;19;831;-64
2022/12/08 04:33:50;;;;;;;;;;;;;;;;;;7366276;19;850;-63
2022/12/08 04:36:18;;;;;;;;;;;;;;;;;;7368163;19;1808;-61
2022/12/08 04:38:47;;;;;;;;;;;;;;;;;;7366455;19;815;-61
2022/12/08 04:41:15;;;;;;;;;;;;;;;;;;7367253;19;818;-62
2022/12/08 04:43:43;;;;;;;;;;;;;;;;;;7369837;19;1726;-62
2022/12/08 04:46:11;;;;;;;;;;;;;;;;;;7363338;19;1849;-62
2022/12/08 04:48:39;;;;;;;;;;;;;;;;;;7366470;19;1783;-62
2022/12/08 04:51:07;;;;;;;;;;;;;;;;;;7365870;19;813;-62
2022/12/08 04:53:35;;;;;;;;;;;;;;;;;;7365398;19;828;-61
2022/12/08 04:56:03;;;;;;;;;;;;;;;;;;7363714;19;1271;-61
2022/12/08 04:58:32;;;;;;;;;;;;;;;;;;7364811;19;822;-61
2022/12/08 05:01:00;;;;;;;;;;;;;;;;;;7364932;19;814;-62
2022/12/08 05:03:28;;;;;;;;;;;;;;;;;;7366513;19;1779;-62
2022/12/08 05:05:56;;;;;;;;;;;;;;;;;;7361791;19;1845;-62
2022/12/08 05:08:24;;;;;;;;;;;;;;;;;;7363593;19;874;-60
2022/12/08 05:10:52;;;;;;;;;;;;;;;;;;7364122;19;859;-60
2022/12/08 05:13:20;;;;;;;;;;;;;;;;;;7368411;19;850;-62
2022/12/08 05:15:48;;;;;;;;;;;;;;;;;;7371263;19;1851;-62
2022/12/08 05:18:17;;;;;;;;;;;;;;;;;;7370608;19;807;-62
2022/12/08 05:20:45;;;;;;;;;;;;;;;;;;7372946;19;1790;-61
2022/12/08 05:23:13;;;;;;;;;;;;;;;;;;7369929;19;826;-61
2022/12/08 05:25:41;;;;;;;;;;;;;;;;;;7370353;19;1841;-60
2022/12/08 05:28:09;;;;;;;;;;;;;;;;;;7370450;19;770;-60
2022/12/08 05:30:37;;;;;;;;;;;;;;;;;;7374788;19;1565;-62
2022/12/08 05:33:05;;;;;;;;;;;;;;;;;;7371125;19;952;-62
2022/12/08 05:35:34;;;;;;;;;;;;;;;;;;7370575;19;1251;-62
2022/12/08 05:38:02;;;;;;;;;;;;;;;;;;7372721;19;1774;-61
2022/12/08 05:40:30;;;;;;;;;;;;;;;;;;7370991;19;840;-63
2022/12/08 05:42:58;;;;;;;;;;;;;;;;;;7370552;19;859;-62
2022/12/08 05:45:26;;;;;;;;;;;;;;;;;;7368460;19;1841;-62
2022/12/08 05:47:54;;;;;;;;;;;;;;;;;;7369970;19;847;-63
2022/12/08 05:50:22;;;;;;;;;;;;;;;;;;7370342;19;855;-63
2022/12/08 05:52:50;;;;;;;;;;;;;;;;;;7387400;19;807;-61
2022/12/08 05:55:19;;;;;;;;;;;;;;;;;;7394388;19;1820;-62
2022/12/08 05:57:47;;;;;;;;;;;;;;;;;;7389348;19;759;-61
2022/12/08 06:00:15;;;;;;;;;;;;;;;;;;7390301;19;814;-61
2022/12/08 06:02:43;;;;;;;;;;;;;;;;;;7391519;19;811;-61
2022/12/08 06:05:11;;;;;;;;;;;;;;;;;;7371361;19;1853;-62
2022/12/08 06:07:39;;;;;;;;;;;;;;;;;;7370848;19;1821;-61
2022/12/08 06:10:07;;;;;;;;;;;;;;;;;;7370547;19;812;-62
2022/12/08 06:12:35;;;;;;;;;;;;;;;;;;7374594;19;1459;-62
2022/12/08 06:15:04;;;;;;;;;;;;;;;;;;7370275;19;821;-62
2022/12/08 06:17:32;;;;;;;;;;;;;;;;;;7369451;19;866;-61
2022/12/08 06:20:00;;;;;;;;;;;;;;;;;;7369412;19;811;-62
2022/12/08 06:22:28;;;;;;;;;;;;;;;;;;7370519;19;862;-62
2022/12/08 06:24:56;;;;;;;;;;;;;;;;;;7369691;19;767;-62
2022/12/08 06:27:24;;;;;;;;;;;;;;;;;;7366850;19;1858;-60
2022/12/08 06:29:52;;;;;;;;;;;;;;;;;;7372403;19;1760;-63
2022/12/08 06:32:21;;;;;;;;;;;;;;;;;;7369427;19;826;-61
2022/12/08 06:34:49;;;;;;;;;;;;;;;;;;7369096;19;855;-60
2022/12/08 06:37:17;;;;;;;;;;;;;;;;;;7367089;19;1242;-62
2022/12/08 06:39:45;;;;;;;;;;;;;;;;;;7370716;19;1826;-62
2022/12/08 06:44:54;;;;;;;;;;;;;;;;;;7370276;19;1785;-61
2022/12/08 06:47:22;;;;;;;;;;;;;;;;;;7366160;19;1842;-61
2022/12/08 06:49:50;;;;;;;;;;;;;;;;;;7367819;19;815;-62
2022/12/08 06:52:18;;;;;;;;;;;;;;;;;;7368850;19;806;-61
2022/12/08 06:54:46;;;;;;;;;;;;;;;;;;7368772;19;791;-59
2022/12/08 06:57:14;;;;;;;;;;;;;;;;;;7366365;19;1274;-60
2022/12/08 06:59:42;;;;;;;;;;;;;;;;;;7367934;19;818;-61
2022/12/08 07:02:11;;;;;;;;;;;;;;;;;;7370548;19;1845;-62
2022/12/08 07:04:39;;;;;;;;;;;;;;;;;;7371677;19;2039;-59
2022/12/08 07:07:07;;;;;;;;;;;;;;;;;;7365903;19;1849;-62
2022/12/08 07:09:35;;;;;;;;;;;;;;;;;;7367755;19;878;-61
2022/12/08 07:12:03;;;;;;;;;;;;;;;;;;7368093;19;843;-61
2022/12/08 07:14:31;;;;;;;;;;;;;;;;;;7368694;19;795;-60
2022/12/08 07:17:00;;;;;;;;;;;;;;;;;;7366328;19;1220;-61
2022/12/08 07:19:29;;;;;;;;;;;;;;;;;;7370977;19;1798;-62
2022/12/08 07:21:57;;;;;;;;;;;;;;;;;;7372051;19;1807;-61
2022/12/08 07:24:25;;;;;;;;;;;;;;;;;;7366535;19;807;-62
2022/12/08 07:26:53;;;;;;;;;;;;;;;;;;7365694;19;1857;-62
2022/12/08 07:29:21;;;;;;;;;;;;;;;;;;7366811;19;811;-62
2022/12/08 07:31:50;;;;;;;;;;;;;;;;;;7372047;19;1780;-63
2022/12/08 07:34:18;;;;;;;;;;;;;;;;;;7371278;19;1809;-61
2022/12/08 07:36:46;;;;;;;;;;;;;;;;;;7368073;19;2038;-62
2022/12/08 07:39:14;;;;;;;;;;;;;;;;;;7367591;19;1848;-62
2022/12/08 07:41:42;;;;;;;;;;;;;;;;;;7372099;19;1818;-63
2022/12/08 07:44:10;;;;;;;;;;;;;;;;;;7366986;19;853;-62
2022/12/08 07:46:38;;;;;;;;;;;;;;;;;;7365847;19;1857;-62
2022/12/08 07:49:07;;;;;;;;;;;;;;;;;;7367248;19;887;-63
2022/12/08 07:51:35;;;;;;;;;;;;;;;;;;7368475;19;891;-63
2022/12/08 07:54:03;;;;;;;;;;;;;;;;;;7371462;19;1596;-62
2022/12/08 07:56:31;;;;;;;;;;;;;;;;;;7369757;19;1769;-64
2022/12/08 07:58:59;;;;;;;;;;;;;;;;;;7367371;19;858;-62
2022/12/08 08:01:27;;;;;;;;;;;;;;;;;;7368591;19;1768;-64
2022/12/08 08:03:55;;;;;;;;;;;;;;;;;;7367185;19;791;-64
2022/12/08 08:06:23;;;;;;;;;;;;;;;;;;7366377;19;1822;-64
2022/12/08 08:08:52;;;;;;;;;;;;;;;;;;7369614;19;1807;-64
2022/12/08 08:11:20;;;;;;;;;;;;;;;;;;7372584;19;1753;-66
2022/12/08 08:13:48;;;;;;;;;;;;;;;;;;7371621;19;1766;-65
2022/12/08 08:16:16;;;;;;;;;;;;;;;;;;7366083;19;1270;-66
2022/12/08 08:18:45;;;;;;;;;;;;;;;;;;7366626;19;837;-64
2022/12/08 08:21:13;;;;;;;;;;;;;;;;;;7368407;19;2008;-65
2022/12/08 08:23:41;;;;;;;;;;;;;;;;;;7366875;19;848;-66
2022/12/08 08:26:09;;;;;;;;;;;;;;;;;;7365286;19;1853;-66
2022/12/08 08:28:37;;;;;;;;;;;;;;;;;;7365954;19;759;-65
2022/12/08 08:31:05;;;;;;;;;;;;;;;;;;7370569;19;1809;-65
2022/12/08 08:33:33;;;;;;;;;;;;;;;;;;7368269;19;1807;-64
2022/12/08 08:36:02;;;;;;;;;;;;;;;;;;7366332;19;1376;-66
2022/12/08 08:38:30;;;;;;;;;;;;;;;;;;7366326;19;835;-64
2022/12/08 08:41:00;;;;;;;;;;;;;;;;;;7367501;19;859;-65
2022/12/08 08:43:35;;;;;;;;;;;;;;;;;;7367454;19;703;-65
2022/12/08 08:46:03;;;;;;;;;;;;;;;;;;7366256;19;1847;-65
2022/12/08 08:48:31;;;;;;;;;;;;;;;;;;7371217;19;798;-66
2022/12/08 08:50:59;;;;;;;;;;;;;;;;;;7374125;19;806;-65
2022/12/08 08:53:27;;;;;;;;;;;;;;;;;;7374294;19;790;-66
2022/12/08 08:55:55;;;;;;;;;;;;;;;;;;7373824;19;1326;-66
2022/12/08 08:58:24;;;;;;;;;;;;;;;;;;7373162;19;821;-68
2022/12/08 09:00:52;;;;;;;;;;;;;;;;;;7374378;19;1365;-65
2022/12/08 09:03:20;;;;;;;;;;;;;;;;;;7373857;19;825;-66
2022/12/08 09:05:48;;;;;;;;;;;;;;;;;;7373306;19;1298;-66
2022/12/08 09:08:16;;;;;;;;;;;;;;;;;;7371318;19;877;-66
2022/12/08 09:10:44;;;;;;;;;;;;;;;;;;7373934;19;817;-65
2022/12/08 09:13:12;;;;;;;;;;;;;;;;;;7373000;19;802;-70
2022/12/08 09:15:41;;;;;;;;;;;;;;;;;;7372391;19;1337;-66
2022/12/08 09:18:09;;;;;;;;;;;;;;;;;;7372686;19;844;-66
2022/12/08 09:20:37;;;;;;;;;;;;;;;;;;7371118;19;838;-66
2022/12/08 09:23:05;;;;;;;;;;;;;;;;;;7370892;19;849;-67
2022/12/08 09:25:33;;;;;;;;;;;;;;;;;;7370617;19;1318;-66
2022/12/08 09:28:01;;;;;;;;;;;;;;;;;;7370022;19;1849;-67
2022/12/08 09:30:29;;;;;;;;;;;;;;;;;;7370307;19;879;-64
2022/12/08 09:32:58;;;;;;;;;;;;;;;;;;7372029;19;814;-66
2022/12/08 09:35:26;;;;;;;;;;;;;;;;;;7371785;19;1345;-64
2022/12/08 09:37:54;;;;;;;;;;;;;;;;;;7370942;19;779;-65
2022/12/08 09:40:22;;;;;;;;;;;;;;;;;;7372604;19;838;-67
2022/12/08 09:42:50;;;;;;;;;;;;;;;;;;7371638;19;860;-66
2022/12/08 09:45:18;;;;;;;;;;;;;;;;;;7371275;19;1357;-67
2022/12/08 09:47:46;;;;;;;;;;;;;;;;;;7370225;19;1842;-67
2022/12/08 09:50:15;;;;;;;;;;;;;;;;;;7372579;19;880;-65
2022/12/08 09:52:43;;;;;;;;;;;;;;;;;;7374689;19;1794;-66
2022/12/08 09:55:11;;;;;;;;;;;;;;;;;;7371056;19;1298;-65
2022/12/08 09:57:39;;;;;;;;;;;;;;;;;;7373458;19;1770;-64
2022/12/08 10:00:08;;;;;;;;;;;;;;;;;;7370625;19;815;-65
2022/12/08 10:02:36;;;;;;;;;;;;;;;;;;7371802;19;913;-65
2022/12/08 10:05:04;;;;;;;;;;;;;;;;;;7371842;19;837;-64
2022/12/08 10:07:32;;;;;;;;;;;;;;;;;;7368764;19;1846;-63
2022/12/08 10:10:00;;;;;;;;;;;;;;;;;;7371062;19;895;-62
2022/12/08 10:12:30;;;;;;;;;;;;;;;;;;7371757;19;872;-64
2022/12/08 10:14:58;;;;;;;;;;;;;;;;;;7371648;19;831;-64
2022/12/08 10:17:28;;;;;;;;;;;;;;;;;;7369379;19;1271;-64
2022/12/08 10:19:56;;;;;;;;;;;;;;;;;;7369371;19;836;-65
2022/12/08 10:22:24;;;;;;;;;;;;;;;;;;7368801;19;814;-65
2022/12/08 10:24:52;;;;;;;;;;;;;;;;;;7370065;19;860;-64
2022/12/08 10:27:20;;;;;;;;;;;;;;;;;;7368061;19;1846;-65
2022/12/08 10:29:50;;;;;;;;;;;;;;;;;;7369701;19;930;-64
2022/12/08 10:32:18;;;;;;;;;;;;;;;;;;7372074;19;822;-64
2022/12/08 10:34:46;;;;;;;;;;;;;;;;;;7369841;19;826;-64
2022/12/08 10:37:14;;;;;;;;;;;;;;;;;;7368141;19;1266;-66
2022/12/08 10:39:42;;;;;;;;;;;;;;;;;;7367958;19;806;-66
2022/12/08 10:42:11;;;;;;;;;;;;;;;;;;7370832;19;831;-66
2022/12/08 10:44:39;;;;;;;;;;;;;;;;;;7371211;19;819;-66
2022/12/08 10:47:07;;;;;;;;;;;;;;;;;;7369031;19;1859;-66
2022/12/08 10:49:37;;;;;;;;;;;;;;;;;;7369492;19;907;-64
2022/12/08 10:52:05;;;;;;;;;;;;;;;;;;7369881;19;781;-63
2022/12/08 10:54:34;;;;;;;;;;;;;;;;;;7369322;19;832;-63
2022/12/08 10:57:02;;;;;;;;;;;;;;;;;;7367588;19;1370;-63
2022/12/08 10:59:30;;;;;;;;;;;;;;;;;;7369017;19;810;-64
2022/12/08 11:01:59;;;;;;;;;;;;;;;;;;7366605;19;807;-64
2022/12/08 11:04:27;;;;;;;;;;;;;;;;;;7370128;19;1754;-64
2022/12/08 11:06:55;;;;;;;;;;;;;;;;;;7368265;19;1875;-65
2022/12/08 11:09:23;;;;;;;;;;;;;;;;;;7369625;19;742;-64
2022/12/08 11:11:51;;;;;;;;;;;;;;;;;;7367296;19;1599;-65
2022/12/08 11:14:19;;;;;;;;;;;;;;;;;;7370427;19;1586;-64
2022/12/08 11:16:47;;;;;;;;;;;;;;;;;;7371787;19;1759;-65
2022/12/08 11:19:16;;;;;;;;;;;;;;;;;;7371541;19;1878;-64
2022/12/08 11:21:45;;;;;;;;;;;;;;;;;;7369416;19;809;-64
2022/12/08 11:24:13;;;;;;;;;;;;;;;;;;7369396;19;865;-65
2022/12/08 11:26:41;;;;;;;;;;;;;;;;;;7367112;19;1853;-65
2022/12/08 11:29:09;;;;;;;;;;;;;;;;;;7367111;19;1005;-66
2022/12/08 11:31:37;;;;;;;;;;;;;;;;;;7368354;19;841;-66
2022/12/08 11:34:05;;;;;;;;;;;;;;;;;;7366423;19;845;-66
2022/12/08 11:36:33;;;;;;;;;;;;;;;;;;7368868;19;1683;-65
2022/12/08 11:39:02;;;;;;;;;;;;;;;;;;7371398;19;2106;-65
2022/12/08 11:41:30;;;;;;;;;;;;;;;;;;7373134;19;1755;-65
2022/12/08 11:43:58;;;;;;;;;;;;;;;;;;7368582;19;858;-66
2022/12/08 11:46:26;;;;;;;;;;;;;;;;;;7367261;19;1279;-66
2022/12/08 11:48:54;;;;;;;;;;;;;;;;;;7365499;19;1845;-66
2022/12/08 11:51:22;;;;;;;;;;;;;;;;;;7369312;19;823;-68
2022/12/08 11:53:51;;;;;;;;;;;;;;;;;;7378073;19;1711;-66
2022/12/08 11:56:19;;;;;;;;;;;;;;;;;;7382261;19;1323;-68
2022/12/08 11:58:50;;;;;;;;;;;;;;;;;;7383288;19;2102;-66
2022/12/08 12:01:18;;;;;;;;;;;;;;;;;;7387855;19;859;-67
2022/12/08 12:03:46;;;;;;;;;;;;;;;;;;7392885;19;1779;-65
2022/12/08 12:06:14;;;;;;;;;;;;;;;;;;7379860;19;1638;-66
2022/12/08 12:08:43;;;;;;;;;;;;;;;;;;7366522;19;1837;-66
2022/12/08 12:11:11;;;;;;;;;;;;;;;;;;7371816;19;1778;-68
2022/12/08 12:13:39;;;;;;;;;;;;;;;;;;7368199;19;861;-66
2022/12/08 12:16:07;;;;;;;;;;;;;;;;;;7366026;19;1283;-67
2022/12/08 12:18:36;;;;;;;;;;;;;;;;;;7368944;19;767;-67
2022/12/08 12:21:04;;;;;;;;;;;;;;;;;;7368796;19;874;-65
2022/12/08 12:23:32;;;;;;;;;;;;;;;;;;7368663;19;782;-67
2022/12/08 12:26:01;;;;;;;;;;;;;;;;;;7367891;19;1283;-68
2022/12/08 12:28:29;;;;;;;;;;;;;;;;;;7367484;19;1841;-66
2022/12/08 12:30:57;;;;;;;;;;;;;;;;;;7369831;19;834;-67
2022/12/08 12:33:25;;;;;;;;;;;;;;;;;;7369103;19;792;-67
2022/12/08 12:35:53;;;;;;;;;;;;;;;;;;7369409;19;1784;-67
2022/12/08 12:41:02;;;;;;;;;;;;;;;;;;7368006;19;856;-66
2022/12/08 12:43:30;;;;;;;;;;;;;;;;;;7366526;19;846;-65
2022/12/08 12:45:58;;;;;;;;;;;;;;;;;;7367289;19;1279;-66
2022/12/08 12:48:27;;;;;;;;;;;;;;;;;;7365139;19;1837;-66
2022/12/08 12:50:56;;;;;;;;;;;;;;;;;;7366898;19;869;-65
2022/12/08 12:53:24;;;;;;;;;;;;;;;;;;7368445;19;2016;-66
2022/12/08 12:55:53;;;;;;;;;;;;;;;;;;7369973;19;2079;-66
2022/12/08 12:58:21;;;;;;;;;;;;;;;;;;7370132;19;1840;-65
2022/12/08 13:00:49;;;;;;;;;;;;;;;;;;7370424;19;1783;-67
2022/12/08 13:03:17;;;;;;;;;;;;;;;;;;7368558;19;1590;-66
2022/12/08 13:05:45;;;;;;;;;;;;;;;;;;7368821;19;1772;-66
2022/12/08 13:08:14;;;;;;;;;;;;;;;;;;7365229;19;1881;-64
2022/12/08 13:10:42;;;;;;;;;;;;;;;;;;7368366;19;1947;-67
2022/12/08 13:13:11;;;;;;;;;;;;;;;;;;7366651;19;827;-65
2022/12/08 13:15:39;;;;;;;;;;;;;;;;;;7365437;19;1295;-65
2022/12/08 13:18:07;;;;;;;;;;;;;;;;;;7365909;19;880;-67
2022/12/08 13:20:35;;;;;;;;;;;;;;;;;;7367091;19;793;-68
2022/12/08 13:23:04;;;;;;;;;;;;;;;;;;7369339;19;1985;-68
2022/12/08 13:25:32;;;;;;;;;;;;;;;;;;7367541;19;1353;-65
2022/12/08 13:28:00;;;;;;;;;;;;;;;;;;7365948;19;1834;-66
2022/12/08 13:30:28;;;;;;;;;;;;;;;;;;7365091;19;858;-65
2022/12/08 13:32:56;;;;;;;;;;;;;;;;;;7368822;19;824;-64
2022/12/08 13:35:24;;;;;;;;;;;;;;;;;;7374602;19;1283;-66
2022/12/08 13:37:53;;;;;;;;;;;;;;;;;;7371027;19;861;-66
2022/12/08 13:40:21;;;;;;;;;;;;;;;;;;7375895;19;1804;-66
2022/12/08 13:42:49;;;;;;;;;;;;;;;;;;7376829;19;1755;-67
2022/12/08 13:45:17;;;;;;;;;;;;;;;;;;7372438;19;1259;-66
2022/12/08 13:47:45;;;;;;;;;;;;;;;;;;7372629;19;1841;-67
2022/12/08 13:50:13;;;;;;;;;;;;;;;;;;7373365;19;1857;-67
2022/12/08 13:52:41;;;;;;;;;;;;;;;;;;7374670;19;1774;-66
2022/12/08 13:55:10;;;;;;;;;;;;;;;;;;7374754;19;1592;-66
2022/12/08 13:57:38;;;;;;;;;;;;;;;;;;7371719;19;828;-65
2022/12/08 14:00:06;;;;;;;;;;;;;;;;;;7374985;19;1540;-66
2022/12/08 14:02:42;;;;;;;;;;;;;;;;;;7373484;19;1710;-64
2022/12/08 14:05:10;;;;;;;;;;;;;;;;;;7375870;19;1812;-66
2022/12/08 14:07:39;;;;;;;;;;;;;;;;;;7373815;19;1857;-65
2022/12/08 14:10:07;;;;;;;;;;;;;;;;;;7373366;19;1765;-64
2022/12/08 14:12:35;;;;;;;;;;;;;;;;;;7369691;19;838;-65
2022/12/08 14:15:03;;;;;;;;;;;;;;;;;;7374359;19;1735;-66
2022/12/08 14:17:31;;;;;;;;;;;;;;;;;;7368814;19;1223;-64
2022/12/08 14:19:59;;;;;;;;;;;;;;;;;;7375267;19;1714;-67
2022/12/08 14:22:27;;;;;;;;;;;;;;;;;;7371810;19;802;-68
2022/12/08 14:24:56;;;;;;;;;;;;;;;;;;7374025;19;1819;-67
2022/12/08 14:27:24;;;;;;;;;;;;;;;;;;7373999;19;1721;-67
2022/12/08 14:29:53;;;;;;;;;;;;;;;;;;7371067;19;2068;-66
2022/12/08 14:32:21;;;;;;;;;;;;;;;;;;7375753;19;1811;-68
2022/12/08 14:34:49;;;;;;;;;;;;;;;;;;7371921;19;1811;-67
2022/12/08 14:37:17;;;;;;;;;;;;;;;;;;7369227;19;1758;-68
2022/12/08 14:39:45;;;;;;;;;;;;;;;;;;7375375;19;1870;-67
2022/12/08 14:42:14;;;;;;;;;;;;;;;;;;7375254;19;1791;-65
2022/12/08 14:44:42;;;;;;;;;;;;;;;;;;7371980;19;1766;-66
2022/12/08 14:47:10;;;;;;;;;;;;;;;;;;7367207;19;2170;-68
2022/12/08 14:49:39;;;;;;;;;;;;;;;;;;7367038;19;1853;-67
2022/12/08 14:52:07;;;;;;;;;;;;;;;;;;7373505;19;1811;-66
2022/12/08 14:54:35;;;;;;;;;;;;;;;;;;7371378;19;1687;-68
2022/12/08 14:57:03;;;;;;;;;;;;;;;;;;7370530;19;1827;-67
2022/12/08 14:59:31;;;;;;;;;;;;;;;;;;7372726;19;1808;-68
2022/12/08 15:01:59;;;;;;;;;;;;;;;;;;7372410;19;1651;-66
2022/12/08 15:04:28;;;;;;;;;;;;;;;;;;7373649;19;1801;-66
2022/12/08 15:06:56;;;;;;;;;;;;;;;;;;7369871;19;1829;-67
2022/12/08 15:09:24;;;;;;;;;;;;;;;;;;7369056;19;1813;-68
2022/12/08 15:11:52;;;;;;;;;;;;;;;;;;7370868;19;1781;-68
2022/12/08 15:14:20;;;;;;;;;;;;;;;;;;7371888;19;1835;-67
2022/12/08 15:16:48;;;;;;;;;;;;;;;;;;7367802;19;1314;-67
2022/12/08 15:19:17;;;;;;;;;;;;;;;;;;7369648;19;1645;-67
2022/12/08 15:21:45;;;;;;;;;;;;;;;;;;7370094;19;865;-66
2022/12/08 15:24:13;;;;;;;;;;;;;;;;;;7369502;19;823;-66
2022/12/08 15:26:42;;;;;;;;;;;;;;;;;;7368257;19;1321;-66
2022/12/08 15:29:10;;;;;;;;;;;;;;;;;;7365519;19;1861;-67
2022/12/08 15:31:38;;;;;;;;;;;;;;;;;;7371892;19;1620;-68
2022/12/08 15:34:06;;;;;;;;;;;;;;;;;;7369135;19;832;-67
2022/12/08 15:36:36;;;;;;;;;;;;;;;;;;7367903;19;1255;-66
2022/12/08 15:39:05;;;;;;;;;;;;;;;;;;7368722;19;822;-66
2022/12/08 15:41:33;;;;;;;;;;;;;;;;;;7370824;19;862;-66
2022/12/08 15:44:01;;;;;;;;;;;;;;;;;;7369007;19;879;-67
2022/12/08 15:46:29;;;;;;;;;;;;;;;;;;7368174;19;1259;-68
2022/12/08 15:48:57;;;;;;;;;;;;;;;;;;7366940;19;1845;-67
2022/12/08 15:51:25;;;;;;;;;;;;;;;;;;7369488;19;811;-63
2022/12/08 15:53:53;;;;;;;;;;;;;;;;;;7371212;19;1800;-65
2022/12/08 15:56:21;;;;;;;;;;;;;;;;;;7367489;19;1263;-63
2022/12/08 15:58:50;;;;;;;;;;;;;;;;;;7369460;19;822;-66
2022/12/08 16:01:18;;;;;;;;;;;;;;;;;;7369406;19;790;-64
2022/12/08 16:03:46;;;;;;;;;;;;;;;;;;7369415;19;795;-66
2022/12/08 16:06:15;;;;;;;;;;;;;;;;;;7368280;19;1353;-65
2022/12/08 16:08:43;;;;;;;;;;;;;;;;;;7371130;19;1868;-62
2022/12/08 16:13:57;;;;;;;;;;;;;;;;;;7368969;19;2056;-65
2022/12/08 16:16:25;;;;;;;;;;;;;;;;;;7367477;19;1263;-64
2022/12/08 16:18:53;;;;;;;;;;;;;;;;;;7367541;19;805;-65
2022/12/08 16:21:21;;;;;;;;;;;;;;;;;;7371427;19;1172;-65
2022/12/08 16:23:50;;;;;;;;;;;;;;;;;;7366650;19;913;-64
2022/12/08 16:26:18;;;;;;;;;;;;;;;;;;7367493;19;1271;-64
2022/12/08 16:28:46;;;;;;;;;;;;;;;;;;7366318;19;1838;-63
2022/12/08 16:31:14;;;;;;;;;;;;;;;;;;7368770;19;778;-64
2022/12/08 16:33:42;;;;;;;;;;;;;;;;;;7369214;19;860;-62
2022/12/08 16:36:10;;;;;;;;;;;;;;;;;;7369268;19;1283;-64
2022/12/08 16:38:38;;;;;;;;;;;;;;;;;;7368159;19;818;-61
2022/12/08 16:43:47;;;;;;;;;;;;;;;;;;7369287;19;1677;-65
2022/12/08 16:46:16;;;;;;;;;;;;;;;;;;7367380;19;1365;-60
2022/12/08 16:48:44;;;;;;;;;;;;;;;;;;7366680;19;1829;-63
2022/12/08 16:51:12;;;;;;;;;;;;;;;;;;7366874;19;803;-61
2022/12/08 16:53:40;;;;;;;;;;;;;;;;;;7367802;19;818;-65
2022/12/08 16:56:08;;;;;;;;;;;;;;;;;;7364576;19;1294;-65
2022/12/08 16:58:37;;;;;;;;;;;;;;;;;;7368036;19;1807;-62
2022/12/08 17:01:05;;;;;;;;;;;;;;;;;;7365819;19;814;-63
2022/12/08 17:03:33;;;;;;;;;;;;;;;;;;7366811;19;800;-66
2022/12/08 17:06:01;;;;;;;;;;;;;;;;;;7365054;19;1365;-61
2022/12/08 17:08:29;;;;;;;;;;;;;;;;;;7365667;19;1814;-63
2022/12/08 17:11:10;;;;;;;;;;;;;;;;;;7373231;19;801;-63
2022/12/08 17:13:38;;;;;;;;;;;;;;;;;;7377441;19;1807;-65
2022/12/08 17:16:06;;;;;;;;;;;;;;;;;;7372233;19;1293;-64
2022/12/08 17:18:35;;;;;;;;;;;;;;;;;;7370662;19;783;-65
2022/12/08 17:21:03;;;;;;;;;;;;;;;;;;7372265;19;814;-62
2022/12/08 17:23:31;;;;;;;;;;;;;;;;;;7372326;19;888;-64
2022/12/08 17:25:59;;;;;;;;;;;;;;;;;;7371912;19;1231;-65
2022/12/08 17:28:27;;;;;;;;;;;;;;;;;;7372238;19;1858;-62
2022/12/08 17:30:55;;;;;;;;;;;;;;;;;;7377277;19;1846;-64
2022/12/08 17:33:23;;;;;;;;;;;;;;;;;;7371183;19;754;-65